WetterOnline ( https://www.wetteronline.de )

Wetter aktuell Dagebüll

Aktuelles Wetter: Leck (17m)

6-stündlich | Neueste Meldungen
Ortszeit Temperatur Wetter
Mo, 29.11. 19:00 -1.3° C bedeckt
Mo, 29.11. 13:00 2.6° C bewölkt
Mo, 29.11. 7:00 1.8° C bedeckt
Mo, 29.11. 1:00 -0.1° C fast wolkenlos
So, 28.11. 19:00 1.6° C bewölkt
So, 28.11. 13:00 0.6° C Nebel
So, 28.11. 7:00 0.8° C Nebel
So, 28.11. 1:00 2.2° C Sprühregen
Ortszeit Temperatur Wetter
Mo, 29.11. 22:30 0.5° C bedeckt
Mo, 29.11. 22:20 0.5° C bedeckt
Mo, 29.11. 22:10 0.5° C wolkig
Mo, 29.11. 22:00 -0.7° C wolkig
Mo, 29.11. 21:50 -0.7° C wolkig
Mo, 29.11. 21:40 -0.8° C bedeckt
Mo, 29.11. 21:30 -0.5° C bedeckt
Mo, 29.11. 21:00 -1.3° C bedeckt
Mo, 29.11. 20:30 -1.1° C bewölkt
Mo, 29.11. 20:00 -1.1° C bedeckt
Mo, 29.11. 19:30 -1.3° C bewölkt
Ortszeit Relative Feuchte Sichtweite
Mo, 29.11. 19:00 94% 25 km
Mo, 29.11. 13:00 83% 45 km
Mo, 29.11. 7:00 94% 22 km
Mo, 29.11. 1:00 94% 14 km
So, 28.11. 19:00 93% 19 km
So, 28.11. 13:00 99% 0.6 km
So, 28.11. 7:00 97% 0.5 km
So, 28.11. 1:00 93% 15 km
Ortszeit Relative Feuchte Sichtweite
Mo, 29.11. 22:30 88% 35 km
Mo, 29.11. 22:20 88% -
Mo, 29.11. 22:10 88% -
Mo, 29.11. 22:00 91% 27 km
Mo, 29.11. 21:50 91% -
Mo, 29.11. 21:40 93% -
Mo, 29.11. 21:30 92% 26 km
Mo, 29.11. 21:00 94% 20 km
Mo, 29.11. 20:30 94% 15 km
Mo, 29.11. 20:00 94% 17 km
Mo, 29.11. 19:30 92% 21 km
Ortszeit Niederschlagsmenge Niederschlagsart
Mo, 29.11. 19:00 0.1 l/m2 in 12 Std. -
Mo, 29.11. 13:00 0.1 l/m2 in 6 Std. Regen
Mo, 29.11. 7:00 0.1 l/m2 in 12 Std. Regen
Mo, 29.11. 1:00 0.0 l/m2 in 6 Std. -
So, 28.11. 19:00 0.1 l/m2 in 12 Std. Sprühregen
So, 28.11. 13:00 0.0 l/m2 in 6 Std. -
So, 28.11. 7:00 0.9 l/m2 in 12 Std. Regen
So, 28.11. 1:00 0.8 l/m2 in 6 Std. Regen
Ortszeit Niederschlagsmenge Niederschlagsart
Mo, 29.11. 22:30 0.0 l/m2 in 1 Std. -
Mo, 29.11. 22:20 keine Meldung -
Mo, 29.11. 22:10 keine Meldung -
Mo, 29.11. 22:00 0.0 l/m2 in 1 Std. -
Mo, 29.11. 21:50 keine Meldung -
Mo, 29.11. 21:40 keine Meldung -
Mo, 29.11. 21:30 0.0 l/m2 in 1 Std. -
Mo, 29.11. 21:00 0.0 l/m2 in 1 Std. -
Mo, 29.11. 20:30 0.0 l/m2 in 1 Std. -
Mo, 29.11. 20:00 0.0 l/m2 in 1 Std. -
Mo, 29.11. 19:30 0.0 l/m2 in 1 Std. -
Ortszeit Stärke Spitze Richtung
km/h Bft. km/h Grad Sektor
Mo, 29.11. 19:00 0 0 18 - -
Mo, 29.11. 13:00 13 3 31 10° N
Mo, 29.11. 7:00 11 2 18 360° N
Mo, 29.11. 1:00 7 2 11 340° N
So, 28.11. 19:00 4 1 11 50° NO
So, 28.11. 13:00 7 2 19 330° NW
So, 28.11. 7:00 9 2 22 340° N
So, 28.11. 1:00 11 2 25 360° N
Ortszeit Stärke Spitze Richtung
km/h Bft. km/h Grad Sektor
Mo, 29.11. 22:30 11 2 14 180° S
Mo, 29.11. 22:20 11 2 - 180° S
Mo, 29.11. 22:10 9 2 - 170° S
Mo, 29.11. 22:00 4 1 11 160° S
Mo, 29.11. 21:50 4 1 - 160° S
Mo, 29.11. 21:40 4 1 - 170° S
Mo, 29.11. 21:30 7 2 11 180° S
Mo, 29.11. 21:00 7 2 7 190° S
Mo, 29.11. 20:30 6 1 7 190° S
Mo, 29.11. 20:00 7 2 7 190° S
Mo, 29.11. 19:30 2 1 4 220° SW
Ortszeit Untergrenze Bedeckung Gattung
total tief tief mittel hoch
Mo, 29.11. 19:00 3600 m 8/8 8/8 - - -
Mo, 29.11. 13:00 690 m 7/8 7/8 - - -
Mo, 29.11. 7:00 960 m 8/8 8/8 - - -
Mo, 29.11. 1:00 780 m 1/8 1/8 - - -
So, 28.11. 19:00 360 m 7/8 7/8 - - -
So, 28.11. 13:00 30 m 8/8 8/8 - - -
So, 28.11. 7:00 30 m 8/8 8/8 - - -
So, 28.11. 1:00 2100 m 8/8 8/8 - - -
Ortszeit Bedeckungsgrad in Achtel und Wolkenuntergrenze
Mo, 29.11. 22:30 4(1800m) 8(2700m) 8(3900m)
Mo, 29.11. 22:20 4(1800m) 8(2700m) 8(3900m)
Mo, 29.11. 22:10 2(2100m) 8(3000m) 8(5100m)
Mo, 29.11. 22:00 1(1800m) 8(3000m) 8(3600m)
Mo, 29.11. 21:50 1(1800m) 8(3000m) 8(3600m)
Mo, 29.11. 21:40 8(3000m) 8(3600m) 8(5700m)
Mo, 29.11. 21:30 8(3000m) 8(3600m) 8(5700m)
Mo, 29.11. 21:00 2(2100m) 8(2700m) 8(5400m)
Mo, 29.11. 20:30 7(2100m) 8(3600m) 8(4500m)
Mo, 29.11. 20:00 8(2700m) 8(3300m) 8(3300m)
Mo, 29.11. 19:30 5(2700m) 8(3300m) 8(3900m)
Ortszeit Luftdruck NN (hPa) Tendenz (hPa in 3 Std.)
Mo, 29.11. 19:00 1008 - 0,1
Mo, 29.11. 13:00 1007 + 1,3
Mo, 29.11. 7:00 1003 + 2,1
Mo, 29.11. 1:00 999 + 0,9
So, 28.11. 19:00 997 + 1,3
So, 28.11. 13:00 996 - 0,1
So, 28.11. 7:00 995 + 0,3
So, 28.11. 1:00 994 0,0
Ortszeit Luftdruck NN (hPa) Tendenz (hPa in 3 Std.)
Mo, 29.11. 22:30 1005 - 2,3
Mo, 29.11. 22:20 1005 keine Meldung
Mo, 29.11. 22:10 1005 keine Meldung
Mo, 29.11. 22:00 1006 - 1,8
Mo, 29.11. 21:50 1006 keine Meldung
Mo, 29.11. 21:40 1006 keine Meldung
Mo, 29.11. 21:30 1006 - 1,4
Mo, 29.11. 21:00 1007 - 1,3
Mo, 29.11. 20:30 1007 - 0,9
Mo, 29.11. 20:00 1007 - 0,7
Mo, 29.11. 19:30 1008 - 0,2
Ortszeit Schneehöhe (cm)
Mo, 29.11. 19:00 0
Mo, 29.11. 13:00 0
Mo, 29.11. 7:00 0
Mo, 29.11. 1:00 0
So, 28.11. 19:00 0
So, 28.11. 13:00 0
So, 28.11. 7:00 0
So, 28.11. 1:00 0
Ortszeit Schneehöhe (cm)
Mo, 29.11. 22:30 0
Mo, 29.11. 22:20 0
Mo, 29.11. 22:10 0
Mo, 29.11. 22:00 0
Mo, 29.11. 21:50 0
Mo, 29.11. 21:40 0
Mo, 29.11. 21:30 0
Mo, 29.11. 21:00 0
Mo, 29.11. 20:30 0
Mo, 29.11. 20:00 0
Mo, 29.11. 19:30 0
Link zu dieser Seite / Seite empfehlen

Das Wetter in ...